Terminal Aerodrome Forecast
Issued by NWS

Home | Current Version | Previous Version | Text Only | Print | Product List | Glossary On
Versions: 1 2 3 4 5 6 7 8 9 10 11 12 13 14
000
FTUS44 KTSA 171922 AAA
TAFRVS
TAF AMD
KRVS 171922Z 1719/1818 17016G27KT P6SM SCT035 BKN150
     FM172300 22014G24KT P6SM SCT150
     FM181100 29013G22KT P6SM SCT250
     FM181400 34024G35KT P6SM BKN030=

USA.gov is the U.S. government's official web portal to all federal, state and local government web resources and services.